Terminal Aerodrome Forecast
Issued by NWS

Home | Current Version | Previous Version | Text Only | Print | Product List | Glossary On
Versions: 1 2 3 4 5 6 7 8 9 10 11 12 13
000
FTUS45 KLKN 172320
TAFTPH
TAF
KTPH 172320Z 1800/1824 34025G40KT P6SM FEW100
     FM180200 35014G20KT P6SM FEW120
     FM180500 36008KT P6SM SKC
     FM181800 VRB06KT P6SM SKC=

USA.gov is the U.S. government's official web portal to all federal, state and local government web resources and services.